Terminal Aerodrome Forecast
Issued by NWS Quad Cities IA IL

Home | Current Version | Previous Version | Text Only | Print | Product List | Glossary On
Versions: 1 2 3 4 5 6 7 8 9 10 11 12 13 14 15
000
FTUS43 KDVN 050520
TAFDBQ
TAF
KDBQ 050520Z 0506/0606 VRB03KT P6SM SCT250
     FM051600 13005KT P6SM BKN250
     FM060100 10003KT P6SM SCT250=

USA.gov is the U.S. government's official web portal to all federal, state and local government web resources and services.